• Join FlightAware (Why Join?)
  • Login
  • US Flag 
12:03PM EST


 

Airport Tracker/Info


-or-


 

Live Flight TrackerFlight Track Log ✈ N770NC ✈ 09-Jun-2013 ✈ KCAE - KATL

Flight Track Log - Related Links

Times and Time Zones

All times are in EDT time to prevent confusion due to time zone crossing. See the N770NC flight status page for this flight to view local times or setup timezone preferences in your user account.

Time Position Orientation Groundspeed Altitude Reporting Facility
EDT Latitude Longitude Course Direction KTS MPH feet Rate Location/Type
02:25PM 33.8525 -81.0719 259° West 231 266 2,900  Level Jacksonville Center
02:26PM 33.8181 -81.1503 242° Southwest 220 253 5,400 2,340 Climbing Jacksonville Center
02:27PM 33.8214 -81.2428 273° West 235 270 7,600 2,340 Climbing Jacksonville Center
02:28PM 33.8269 -81.3400 274° West 259 298 10,100 1,800 Climbing Jacksonville Center
02:29PM 33.8114 -81.4453 260° West 287 330 11,300 1,680 Climbing Jacksonville Center
02:30PM 33.7853 -81.5051 259° West  Level FlightAware Approximate
02:31PM 33.7694 -81.6004 259° West  Level FlightAware Approximate
02:31PM 33.7831 -81.6194 259° West 324 373 14,500  Level Atlanta Center
02:32PM 33.7558 -81.7303 254° West 336 387 16,300 1,740 Climbing Atlanta Center
02:33PM 33.7372 -81.8481 259° West 349 402 18,000 1,560 Climbing Atlanta Center
02:34PM 33.7308 -81.9706 266° West 361 415 19,500 1,380 Climbing Atlanta Center
02:35PM 33.6953 -82.0864 250° West 366 421 20,800 1,080 Climbing Atlanta Center
02:36PM 33.6425 -82.1947 240° Southwest 378 435 21,700 600 Climbing Atlanta Center
02:37PM 33.5814 -82.2933 233° Southwest 394 453 22,000 120 Climbing Atlanta Center
02:38PM 33.5097 -82.3969 230° Southwest 411 473 22,000  Level Atlanta Center
02:39PM 33.4486 -82.5053 236° Southwest 403 464 22,000  Level Atlanta Center
02:40PM 33.4083 -82.6303 249° West 397 457 22,000  Level Atlanta Center
02:41PM 33.3806 -82.7725 257° West 413 475 22,000  Level Atlanta Center
02:42PM 33.3569 -82.9047 258° West 404 465 22,000 -660 Level Atlanta Center
02:43PM 33.3350 -83.0342 259° West 404 465 20,700 -1,380 Descending Atlanta Center
02:44PM 33.2964 -83.1564 249° West 399 459 19,300 -1,440 Descending Atlanta Center
02:45PM 33.2492 -83.2714 244° Southwest 399 459 17,900 -1,260 Descending Atlanta Center
02:46PM 33.1975 -83.3811 241° Southwest 392 451 16,800 -1,500 Descending Atlanta Center
02:47PM 33.1564 -83.4881 245° Southwest 371 427 14,900 -2,220 Descending Atlanta Center
02:48PM 33.1589 -83.6094 271° West 350 403 12,400 -2,040 Descending Atlanta Center
02:48PM 33.1833 -83.6500 306° West 361 415 12,000 -300 Descending Atlanta TRACON
02:49PM 33.2333 -83.7667 297° West 339 390 12,000 -480 Level Atlanta TRACON
02:50PM 33.2833 -83.8500 306° West 315 362 11,000 -1,080 Descending Atlanta TRACON
02:51PM 33.2933 -83.8872 288° West 325 374 10,500 -1,440 Descending Atlanta Center
02:52PM 33.3372 -83.9692 303° West 305 351 8,900 -1,440 Descending Atlanta Center
02:53PM 33.3767 -84.0489 301° West 287 330 7,700 -1,320 Descending Atlanta Center
02:54PM 33.4122 -84.1158 302° West 260 299 6,300 -1,260 Descending Atlanta Center
02:55PM 33.4561 -84.1783 310° West 248 285 5,200 -660 Descending Atlanta Center
02:56PM 33.5292 -84.1983 347° North 231 266 5,000 -420 Descending Atlanta Center
02:57PM 33.5564 -84.1336 63° Northeast 165 190 4,400 -840 Descending Atlanta Center
02:58PM 33.6167 -84.1167 13° North 235 270 2,900 -540 Descending Atlanta TRACON
02:59PM 33.6167 -84.2000 270° West 216 249 3,000  Climbing Atlanta TRACON
03:00PM 33.6167 -84.2667 270° West 187 215 3,000 -300 Level Atlanta TRACON
03:01PM 33.6167 -84.3167 270° West 199 229 2,400 -720 Descending Atlanta TRACON
03:02PM 33.6167 -84.3833 270° West 153 176 1,600 -840 Descending Atlanta TRACON
03:04PM 33.6333 -84.4167 40° Northeast  Level FlightAware Approximate
03:11PM 33.6367 -84.4279 40° Northeast  Level Estimated
03:12PM 33.6367 -84.4279 40° Northeast  Level Estimated